New Glarus, WI (53574)

20:46 CDT le 26 avril 2015 (GMT -0500)
Swisstown | | Change Station
CLOSE
Current Station
Stations météorologiques personnelles
Location: New Glarus, WI
Altitude: 875 ft
Stations météo à proximité

Alt. 875 ft 42.82 °N, 89.64 °W | Updated 7 seconds ago

Ciel dégagé
Ciel dégagé
46.9 ° F
Paraît 47 ° F
N
0.0
Vent Variable Vent de NE
Gusts 0.0 mph

Aujourd'hui
Haut(e) -- | Bas -- ° F
--% Risque de précip.
Hier
Haut(e) -- | Bas -- ° F
Precip. -- pouce
6:00 AM 7:53 PM
Premier quartier, 60% visible
Pression 30.01 pouce
Visibilité 10.0 Miles terrestres
Nuages Ciel dégagé
Refroidissement éolien 47 ° F
Point de rosée 32 ° F
Humidité 57%
Précipitations 0.00 pouce
Profondeur de la couche neigeuse Non disponible.
UV 0 sur 12
Pollen 10.40 sur 12
Qualité de l'air Non disponible.
Flu Activity Local Activity
METAR KEFT 270135Z AUTO 00000KT 10SM CLR 11/M03 A3001 RMK AO2

More Conditions Fewer Conditions

Pression 30.01 pouce
Visibilité 10.0 Miles terrestres
Nuages Ciel dégagé
Refroidissement éolien 47 ° F
Point de rosée 32 ° F
Humidité 57%
Précipitations 0.00 pouce
Profondeur de la couche neigeuse Non disponible.
UV 0 sur 12
Pollen 10.40 sur 12
Qualité de l'air Non disponible.
Flu Activity Local Activity
METAR KEFT 270135Z AUTO 00000KT 10SM CLR 11/M03 A3001 RMK AO2

More Conditions Fewer Conditions

The full scope of the disaster following a powerful 7.8-magnitude earthquake in Nepal may not come into view for days, but global charities are already sending emergency aid. Click to see how you can help.

10-Day Weather Forecast

Almanac

Astronomie

Apr. 26, 2015 Lever Coucher
Temps réel
Crépuscule civil
Crépuscule nautique
Crépuscule astronomique
Lune
Durée de lumière visible
Longueur du jour
Tomorrow will be .
, % of the Moon is Illuminated

Extrêmes aujourd'hui

State Highs State Lows

Community

WunderPhotos

Upload Photos

1,817,202 Photos téléchargées !

WunderBlogs® & News

Nearby

Qualité de l'air

  Qualité de l'air Indice de la qualité de l'air Polluant
Not available.

Épaisseur de neige

Station Depth Altitude

Activité sismique

Ville Distance Mag. Time & Date
Minimum magnitude displayed is 2.5.

Températures des eaux côtières

Lieu Température

Stations

Stations météo à proximité

Emplacement de la station Température Refroidissement éolien Point de rosée Humidité Vent Precip. Alt. Mise à jour Type